Weather History for Artesia, NM

Change the Weather History Date:

Monday, February 18, 2013

  Actual Average Record
Temperature  
Mean Temperature 54 °F -  
Max Temperature 66 °F 61 °F 83 °F (1970)
Min Temperature 41 °F 27 °F 13 °F (1990)
Degree Days  
Heating Degree Days 12    
Growing Degree Days 4 (Base 50)    
Moisture  
Dew Point 5 °F    
Average Humidity 15    
Maximum Humidity 25    
Minimum Humidity 7    
Precipitation  
Precipitation 0.00 in - - ()
Sea Level Pressure  
Sea Level Pressure 29.95 in    
Wind  
Wind Speed 13 mph (West)    
Max Wind Speed 20 mph    
Max Gust Speed 26 mph    
Visibility 10 miles    
Events      
Averages and records for this station are not official NWS values.
T = Trace of Precipitation, MM = Missing Value Source: NWS Daily Summary

Daily Weather History Graph

Daily Weather History Graph

Search for Another Location

Airport:

Trip Planner

Search our weather history database for the weather conditions in past years. The results will help you decide how hot, cold, wet, or windy it might be!

Date:

Astronomy

Feb. 18, 2013 Rise Set
Actual Time 6:37 AM MST 5:46 PM MST
Civil Twilight 6:12 AM MST 6:11 PM MST
Nautical Twilight 5:43 AM MST 6:40 PM MST
Astronomical Twilight 5:15 AM MST 7:08 PM MST
Moon 11:42 AM MST (2/18) 1:11 AM MST (2/18)
Length of Visible Light 11h 58m
Length of Day
11h 08m
First Quarter, 59% of the Moon is Illuminated
Feb 18
First Quarter
Feb 25
Full
Mar 4
Last Quarter
Mar 11
New
Mar 19
First Quarter

Hourly Weather History & Observations

Time (MST) Temp. Windchill Dew Point Humidity Pressure Visibility Wind Dir Wind Speed Gust Speed Precip Events Conditions
12:15 AM 55.4 °F - 8.6 °F 15% 29.78 in 10.0 mi WSW 19.6 mph 26.5 mph N/A   Clear
12:35 AM 53.6 °F - 6.8 °F 15% 29.78 in 10.0 mi WSW 17.3 mph - N/A   Clear
12:55 AM 51.8 °F - 6.8 °F 16% 29.79 in 10.0 mi WSW 18.4 mph - N/A   Clear
1:15 AM 50.0 °F - 6.8 °F 17% 29.79 in 10.0 mi WSW 16.1 mph - N/A   Clear
1:35 AM 48.2 °F - 6.8 °F 19% 29.79 in 10.0 mi WSW 15.0 mph - N/A   Clear
1:55 AM 48.2 °F - 5.0 °F 17% 29.80 in 10.0 mi WSW 15.0 mph - N/A   Clear
2:15 AM 48.2 °F - 5.0 °F 17% 29.80 in 10.0 mi WSW 17.3 mph - N/A   Clear
2:35 AM 48.2 °F - 5.0 °F 17% 29.81 in 10.0 mi WSW 15.0 mph - N/A   Clear
2:55 AM 46.4 °F 40.1 °F 5.0 °F 18% 29.81 in 10.0 mi WSW 15.0 mph - N/A   Clear
3:15 AM 46.4 °F 41.1 °F 5.0 °F 18% 29.82 in 10.0 mi West 11.5 mph - N/A   Clear
3:35 AM 42.8 °F 36.6 °F 3.2 °F 19% 29.82 in 10.0 mi West 11.5 mph - N/A   Clear
3:55 AM 44.6 °F 38.1 °F 3.2 °F 18% 29.83 in 10.0 mi West 13.8 mph - N/A   Clear
4:15 AM 46.4 °F 40.7 °F 5.0 °F 18% 29.84 in 10.0 mi West 12.7 mph - N/A   Clear
4:35 AM 44.6 °F 38.4 °F 3.2 °F 18% 29.84 in 10.0 mi West 12.7 mph - N/A   Clear
4:55 AM 42.8 °F 36.2 °F 3.2 °F 19% 29.85 in 10.0 mi West 12.7 mph - N/A   Clear
5:15 AM 42.8 °F 36.6 °F 5.0 °F 21% 29.86 in 10.0 mi WSW 11.5 mph - N/A   Clear
5:35 AM 41.0 °F 34.3 °F 5.0 °F 23% 29.87 in 10.0 mi WSW 11.5 mph - N/A   Clear
5:55 AM 41.0 °F 33.9 °F 5.0 °F 23% 29.88 in 10.0 mi West 12.7 mph - N/A   Clear
6:15 AM 41.0 °F 33.9 °F 5.0 °F 23% 29.89 in 10.0 mi West 12.7 mph - N/A   Clear
6:35 AM 41.0 °F 33.9 °F 5.0 °F 23% 29.90 in 10.0 mi West 12.7 mph - N/A   Clear
6:55 AM 41.0 °F 33.9 °F 5.0 °F 23% 29.91 in 10.0 mi West 12.7 mph - N/A   Clear
7:15 AM 44.6 °F 39.2 °F 5.0 °F 20% 29.93 in 10.0 mi West 10.4 mph - N/A   Clear
7:35 AM 46.4 °F 41.1 °F 5.0 °F 18% 29.94 in 10.0 mi West 11.5 mph - N/A   Clear
7:55 AM 48.2 °F - 5.0 °F 17% 29.95 in 10.0 mi West 11.5 mph - N/A   Clear
8:15 AM 53.6 °F - 6.8 °F 15% 29.96 in 10.0 mi West 10.4 mph - N/A   Clear
8:35 AM 55.4 °F - 6.8 °F 14% 29.97 in 10.0 mi West 15.0 mph - N/A   Clear
8:55 AM 57.2 °F - 6.8 °F 13% 29.97 in 10.0 mi WNW 6.9 mph 19.6 mph N/A   Clear
9:15 AM 59.0 °F - 6.8 °F 13% 29.98 in 10.0 mi NW 10.4 mph 16.1 mph N/A   Clear
9:35 AM 59.0 °F - 6.8 °F 13% 29.98 in 10.0 mi NW 15.0 mph - N/A   Clear
9:55 AM 59.0 °F - 6.8 °F 13% 29.99 in 10.0 mi NNW 15.0 mph 19.6 mph N/A   Clear
10:15 AM 60.8 °F - 6.8 °F 12% 30.00 in 10.0 mi NW 9.2 mph - N/A   Clear
10:35 AM 60.8 °F - 6.8 °F 12% 30.00 in 10.0 mi WNW 9.2 mph 17.3 mph N/A   Clear
10:55 AM 62.6 °F - 6.8 °F 11% 30.00 in 10.0 mi NW 13.8 mph 18.4 mph N/A   Clear
11:15 AM 62.6 °F - 5.0 °F 10% 30.00 in 10.0 mi WNW 13.8 mph 20.7 mph N/A   Clear
11:35 AM 62.6 °F - 5.0 °F 10% 29.99 in 10.0 mi West 9.2 mph 17.3 mph N/A   Clear
11:55 AM 64.4 °F - 5.0 °F 10% 29.99 in 10.0 mi WNW 9.2 mph - N/A   Clear
12:15 PM 64.4 °F - 5.0 °F 10% 29.98 in 10.0 mi WSW 4.6 mph 24.2 mph N/A   Clear
12:35 PM 64.4 °F - 3.2 °F 9% 29.98 in 10.0 mi WNW 10.4 mph 17.3 mph N/A   Clear
12:55 PM 64.4 °F - 3.2 °F 9% 29.97 in 10.0 mi WNW 13.8 mph 18.4 mph N/A   Clear
1:15 PM 66.2 °F - 1.4 °F 8% 29.96 in 10.0 mi West 13.8 mph - N/A   Clear
1:35 PM 66.2 °F - 1.4 °F 8% 29.96 in 10.0 mi NNW 8.1 mph - N/A   Clear
1:55 PM 66.2 °F - 1.4 °F 8% 29.95 in 10.0 mi WNW 8.1 mph - N/A   Clear
2:15 PM 64.4 °F - -0.4 °F 7% 29.95 in 10.0 mi Calm Calm - N/A   Clear
2:35 PM 66.2 °F - 1.4 °F 8% 29.95 in 10.0 mi North 5.8 mph - N/A   Clear
2:55 PM 66.2 °F - 1.4 °F 8% 29.95 in 10.0 mi North 8.1 mph - N/A   Clear
3:15 PM 66.2 °F - 1.4 °F 8% 29.95 in 10.0 mi NNW 8.1 mph - N/A   Clear
3:35 PM 66.2 °F - -0.4 °F 7% 29.95 in 10.0 mi NNE 8.1 mph 16.1 mph N/A   Clear
3:55 PM 66.2 °F - -0.4 °F 7% 29.96 in 10.0 mi NNW 6.9 mph - N/A   Clear
4:35 PM 64.4 °F - 1.4 °F 8% 29.96 in 10.0 mi SE 8.1 mph - N/A   Clear
4:55 PM 64.4 °F - 1.4 °F 8% 29.97 in 10.0 mi SE 9.2 mph - N/A   Clear
5:15 PM 62.6 °F - 1.4 °F 9% 29.97 in 10.0 mi ENE 8.1 mph - N/A   Clear
5:35 PM 59.0 °F - -0.4 °F 9% 29.98 in 10.0 mi NE 11.5 mph - N/A   Clear
5:55 PM 57.2 °F - -0.4 °F 10% 29.99 in 10.0 mi NE 10.4 mph - N/A   Clear
6:15 PM 55.4 °F - -0.4 °F 10% 30.00 in 10.0 mi NE 5.8 mph - N/A   Clear
6:35 PM 55.4 °F - -0.4 °F 10% 30.01 in 10.0 mi ENE 5.8 mph - N/A   Clear
6:55 PM 53.6 °F - -0.4 °F 11% 30.01 in 10.0 mi NE 5.8 mph - N/A   Clear
7:15 PM 50.0 °F - -0.4 °F 13% 30.02 in 10.0 mi NNE 4.6 mph - N/A   Clear
7:35 PM 51.8 °F - -0.4 °F 12% 30.03 in 10.0 mi ESE 5.8 mph - N/A   Clear
7:55 PM 51.8 °F - 3.2 °F 14% 30.04 in 10.0 mi ESE 10.4 mph - N/A   Clear
8:15 PM 50.0 °F - 6.8 °F 17% 30.04 in 10.0 mi ESE 11.5 mph - N/A   Clear
8:35 PM 50.0 °F - 8.6 °F 19% 30.05 in 10.0 mi SE 10.4 mph 17.3 mph N/A   Clear
8:55 PM 48.2 °F - 8.6 °F 20% 30.06 in 10.0 mi SE 10.4 mph - N/A   Clear
9:15 PM 46.4 °F 42.4 °F 10.4 °F 23% 30.07 in 10.0 mi SSE 8.1 mph - N/A   Clear
9:35 PM 46.4 °F 41.9 °F 10.4 °F 23% 30.08 in 10.0 mi SSE 9.2 mph - N/A   Clear
9:55 PM 46.4 °F 41.1 °F 10.4 °F 23% 30.08 in 10.0 mi South 11.5 mph - N/A   Clear
10:15 PM 46.4 °F 41.5 °F 10.4 °F 23% 30.09 in 10.0 mi South 10.4 mph - N/A   Clear
10:35 PM 46.4 °F 41.1 °F 10.4 °F 23% 30.09 in 10.0 mi SSE 11.5 mph - N/A   Clear
10:55 PM 44.6 °F 39.7 °F 10.4 °F 25% 30.09 in 10.0 mi South 9.2 mph - N/A   Clear
11:15 PM 44.6 °F 38.8 °F 10.4 °F 25% 30.09 in 10.0 mi South 11.5 mph - N/A   Clear
11:35 PM 46.4 °F 39.8 °F 10.4 °F 23% 30.10 in 10.0 mi SSE 16.1 mph - N/A   Clear
11:55 PM 44.6 °F 39.2 °F 10.4 °F 25% 30.11 in 10.0 mi SSE 10.4 mph - N/A   Clear